LGKR/CFU METAR and TAF weather

Enter ICAO airport designator
Station Type Date Time Source
LGKR METAR 2021/01/27 13:50 UTC NOAA

LGKR 271350Z 31022KT 9999 FEW035 11/M04 Q1011 NOSIG


Station Type Date Time Source
LGKR Decoded METAR 2021/01/27 13:50 UTC NOAA

Kerkyra Airport , Greece (LGKR) 39-37N 019-55E 4M
Jan 27, 2021 - 08:50 AM EST / 2021.01.27 1350 UTC
Wind: from the NW (310 degrees) at 25 MPH (22 KT):0
Visibility: greater than 7 mile(s):0
Sky conditions: mostly clear
Temperature: 51 F (11 C)
Dew Point: 24 F (-4 C)
Relative Humidity: 34%
Pressure (altimeter): 29.85 in. Hg (1011 hPa)
ob: LGKR 271350Z 31022KT 9999 FEW035 11/M04 Q1011 NOSIG
cycle: 14

Station Type Date Time Source
LGKR TAF 2021/01/27 12:12 UTC NOAA

TAF LGKR 271100Z 2712/2812 34016G28KT 9999 FEW020 SCT080 PROB30
TEMPO 2712/2718 5000 RA FEW020TCU SCT030 BKN070
BECMG 2720/2722 33015KT

Example: see airport list